logo
App data

Alien Shooter: Revisited

Crowds of blood-thirsty monsters, crawling from every corner of the secret research base. Gloomy basements and modern labs, darkness changing into blazing bulbs. The only usual thing is: you're in a bad place alone, and there's no one to help you!
Store | Hub | SteamDB | Site
Developer: Sigma Team Inc. Publisher: Sigma Team Inc.
Genre: Action, Indie, RPG
Languages: English, Russian
Tags: Action (31), RPG (27), Indie (25), Shooter (19), Singleplayer (11), Isometric (11), Top-Down Shooter (9), Aliens (7)
Category: Single-player, Steam Trading Cards
Release date: May 27, 2009
Price: $1.99 60%
Old userscore: 67% Owners: 200,000 .. 500,000
Followers: 666
Peak concurrent players yesterday: 10
Playtime total: 02:16 (average) 03:05 (median)

Steam Spy is still in beta, so expect major bugs.

Owners data:

Access restricted.

This feature is only available to users with special access rights. Sorry.

If you want to proceed, you need to register or log in first and then back Steam Spy on Patreon. Look for Indie or Pro pledge.

Don't forget to use the same email as on Steam Spy!

If you've recently backed Steam Spy on Patreon, please note, that it might take around 15 minutes for your access rights to sync. In most cases you'll need to re-login on Steam Spy too.

Audience in 2 weeks:

Access restricted.

This feature is only available to users with special access rights. Sorry.

If you want to proceed, you need to register or log in first and then back Steam Spy on Patreon. Look for Indie or Pro pledge.

Don't forget to use the same email as on Steam Spy!

If you've recently backed Steam Spy on Patreon, please note, that it might take around 15 minutes for your access rights to sync. In most cases you'll need to re-login on Steam Spy too.

Peak daily concurrent players:

CCU data courtesy of SteamDB. Used with permission.

Hourly concurrent players:

Followers over time

Access restricted.

This feature is only available to users with special access rights. Sorry.

If you want to proceed, you need to register or log in first and then back Steam Spy on Patreon. Look for Indie or Pro pledge.

Don't forget to use the same email as on Steam Spy!

If you've recently backed Steam Spy on Patreon, please note, that it might take around 15 minutes for your access rights to sync. In most cases you'll need to re-login on Steam Spy too.

Views for top 50 videos on YouTube for this game:

Games similar to this one:

# Game Release date
Price
Score rank
(Userscore / Metascore)
Owners
Players
Playtime (Median)
1 The Ship: Single Player Nov 20, 2006 $2.49N/A (N/A)200,000 .. 500,0000%00:00 (00:00)
2 Alpha Prime Nov 7, 2007 $0.99N/A (N/A/59%)200,000 .. 500,0000%00:00 (00:00)
3 Painkiller Overdose Oct 30, 2007 $1.24N/A (N/A/65%)100,000 .. 200,0000%00:00 (00:00)
4 Judge Dredd: Dredd vs. Death Feb 28, 2005 $1.99N/A (N/A/55%)50,000 .. 100,0000%00:00 (00:00)
5 Project: Snowblind Mar 29, 2007 $0.89N/A (N/A/76%)100,000 .. 200,0000%00:00 (00:00)
6 Conflict: Denied Ops Feb 8, 2008 $0.89N/A (N/A/58%)100,000 .. 200,0000%00:00 (00:00)
7 QUAKE Mission Pack 1: Scourge of Armagon Feb 28, 1997 N/AN/A (N/A)50,000 .. 100,0000%00:00 (00:00)
8 Frontlines: Fuel of War Feb 27, 2008 $4.99N/A (N/A/73%)200,000 .. 500,0000%00:00 (00:00)
9 Aces of the Galaxy Jun 4, 2008 $3.29N/A (N/A)0 .. 20,0000%00:00 (00:00)
10 TimeShift Oct 30, 2007 $9.99N/A (N/A/71%)100,000 .. 200,0000%00:00 (00:00)
11 The Club Feb 20, 2008 $3.74N/A (N/A/67%)20,000 .. 50,0000%00:00 (00:00)
12 Larva Mortus Mar 19, 2009 $0.99N/A (N/A/64%)50,000 .. 100,0000%00:00 (00:00)
13 Damnation May 22, 2009 $1.99N/A (N/A/41%)50,000 .. 100,0000%00:00 (00:00)
14 Unreal 2: The Awakening Feb 3, 2003 $14.99N/A (N/A/75%)200,000 .. 500,0000%00:00 (00:00)
15 Prince of Persia: Warrior Within Nov 30, 2004 $1.99N/A (N/A/83%)200,000 .. 500,0000%00:00 (00:00)
16 Prince of Persia: The Two Thrones Dec 7, 2005 $1.99N/A (N/A/85%)200,000 .. 500,0000%00:00 (00:00)
17 Tom Clancy's Rainbow Six Vegas Dec 12, 2006 $2.49N/A (N/A/85%)100,000 .. 200,0000%00:00 (00:00)
18 Tom Clancy's Ghost Recon Desert Siege Mar 26, 2002 $1.49N/A (N/A/82%)100,000 .. 200,0000%00:00 (00:00)
19 Tom Clancy's Rainbow Six Lockdown Feb 14, 2006 $2.49N/A (N/A/59%)100,000 .. 200,0000%00:00 (00:00)
20 Rayman Raving Rabbids Mar 27, 2007 $2.49N/A (N/A/58%)50,000 .. 100,0000%00:00 (00:00)
21 Legendary Dec 1, 2008 $0.99N/A (N/A/50%)200,000 .. 500,0000%00:00 (00:00)
22 Prince of Persia Dec 10, 2008 $1.99N/A (N/A/82%)200,000 .. 500,0000%00:00 (00:00)
23 Bionic Commando Jul 28, 2009 $1.99N/A (N/A/69%)200,000 .. 500,0000%00:00 (00:00)
24 Bionic Commando: Rearmed Aug 14, 2008 $1.99N/A (N/A/86%)200,000 .. 500,0000%00:00 (00:00)
25 Alien Breed: Impact Jun 3, 2010 $1.99N/A (N/A/64%)200,000 .. 500,0000%00:00 (00:00)
26 Alien Breed 2: Assault Sep 22, 2010 $1.99N/A (N/A/63%)200,000 .. 500,0000%00:00 (00:00)
27 Blacklight: Tango Down Jul 14, 2010 N/AN/A (N/A/65%)50,000 .. 100,0000%00:00 (00:00)
28 Twin Sector Sep 16, 2009 $2.49N/A (N/A)50,000 .. 100,0000%00:00 (00:00)
29 Booster Trooper Apr 16, 2010 $0.99N/A (N/A)50,000 .. 100,0000%00:00 (00:00)
30 Dead Horde Jul 27, 2011 $2.99N/A (N/A)50,000 .. 100,0000%00:00 (00:00)
31 Sam & Max 301: The Penal Zone Dec 14, 1990 $9.99N/A (N/A)100,000 .. 200,0000%00:00 (00:00)
32 Iron Grip: Warlord Dec 5, 2008 N/AN/A (N/A/59%)100,000 .. 200,0000%00:00 (00:00)
33 Comanche 4 Nov 15, 2001 $2.49N/A (N/A/74%)20,000 .. 50,0000%00:00 (00:00)
34 Alien Shooter Sep 15, 2003 $1.99N/A (N/A)200,000 .. 500,0004.55%00:19 (00:06)
35 Zombie Shooter Dec 29, 2007 $1.99N/A (N/A)100,000 .. 200,0000%00:00 (00:00)
36 Zombie Shooter 2 Sep 23, 2009 $3.99N/A (N/A)100,000 .. 200,0000%00:00 (00:00)
37 SEGA Mega Drive and Genesis Classics Jun 1, 2010 $30.34N/A (N/A)1,000,000 .. 2,000,0000.25%00:05 (00:01)
38 Foreign Legion: Buckets of Blood Aug 4, 2009 $2.99N/A (N/A)100,000 .. 200,0000%00:00 (00:00)
39 Kingpin — Life of Crime Jun 1, 1999 $6.99N/A (N/A)20,000 .. 50,0000%00:00 (00:00)
40 Painkiller: Resurrection Oct 27, 2009 $2.49N/A (N/A/38%)100,000 .. 200,0000%00:00 (00:00)
41 AquaNox Nov 30, 2001 $1.24N/A (N/A/67%)100,000 .. 200,0000%00:00 (00:00)
42 AquaNox 2: Revelation Aug 19, 2003 $1.24N/A (N/A/59%)100,000 .. 200,0000%00:00 (00:00)
43 DogFighter Jun 14, 2010 $0.99N/A (N/A)200,000 .. 500,0000%00:00 (00:00)
44 Wasteland Angel Sep 1, 2011 $0.99N/A (N/A)50,000 .. 100,0000%00:00 (00:00)
45 Plain Sight Apr 5, 2010 $4.99N/A (N/A/76%)50,000 .. 100,0000%00:00 (00:00)
46 The First Templar - Steam Special Edition May 12, 2011 $3.99N/A (N/A/57%)100,000 .. 200,0000%00:00 (00:00)
47 Who's That Flying?! Jan 31, 2011 $1.19N/A (N/A/76%)20,000 .. 50,0000%00:00 (00:00)
48 Painkiller Redemption Feb 25, 2011 $1.24N/A (N/A/43%)200,000 .. 500,0000%00:00 (00:00)
49 Xotic Sep 16, 2011 $9.99N/A (N/A/67%)50,000 .. 100,0000%00:00 (00:00)
50 Shadow Harvest: Phantom Ops Apr 5, 2011 $9.99N/A (N/A/34%)20,000 .. 50,0000%00:00 (00:00)
51 Capsized Apr 29, 2011 $2.49N/A (N/A/80%)200,000 .. 500,0003.13%00:38 (00:12)
52 Garshasp: The Monster Slayer May 9, 2011 $4.99N/A (N/A/49%)50,000 .. 100,0000%00:00 (00:00)
53 Warp Mar 21, 2012 $2.49N/A (N/A)20,000 .. 50,0000%00:00 (00:00)
54 Bunch of Heroes Sep 21, 2011 $4.99N/A (N/A)100,000 .. 200,0000%00:00 (00:00)
55 Serious Sam Double D XXL Aug 30, 2011 $1.99N/A (N/A)200,000 .. 500,0000%00:00 (00:00)
56 Global Ops: Commando Libya Oct 26, 2011 $4.99N/A (N/A/37%)50,000 .. 100,0000%00:00 (00:00)
57 Choplifter HD Jan 11, 2012 N/AN/A (N/A/65%)50,000 .. 100,0000%00:00 (00:00)
58 Sonic the Hedgehog 4 - Episode II May 15, 2012 $2.49N/A (N/A/54%)100,000 .. 200,0000%00:00 (00:00)
59 Foreign Legion: Multi Massacre Jul 9, 2012 $3.74N/A (N/A)50,000 .. 100,0000%00:00 (00:00)
60 Painkiller: Recurring Evil Feb 29, 2012 $2.49N/A (N/A/38%)100,000 .. 200,0000%00:00 (00:00)
61 Noitu Love 2: Devolution Apr 23, 2012 $4.99N/A (N/A/80%)50,000 .. 100,0000%00:00 (00:00)
62 Sacred Citadel Apr 16, 2013 $2.49N/A (N/A/61%)500,000 .. 1,000,0000%00:00 (00:00)
63 Blades of Time Apr 20, 2012 $9.99N/A (N/A/63%)200,000 .. 500,0000%00:00 (00:00)
64 Primal Fears Jan 8, 2013 $3.99N/A (N/A)50,000 .. 100,0000%00:00 (00:00)
65 Kung Fu Strike - The Warrior's Rise Jul 24, 2012 $9.99N/A (N/A)100,000 .. 200,0000%00:00 (00:00)
66 Inversion Jul 26, 2012 $1.49N/A (N/A)20,000 .. 50,0000%00:00 (00:00)
67 Intrusion 2 Sep 11, 2012 $9.99N/A (N/A/80%)200,000 .. 500,0000%00:00 (00:00)
68 Damage Inc. Pacific Squadron WWII Aug 28, 2012 $39.99N/A (N/A)0 .. 20,0000%00:00 (00:00)
69 iBomber Attack Nov 1, 2012 $5.99N/A (N/A)20,000 .. 50,0000%00:00 (00:00)
70 NiGHTS Into Dreams Dec 17, 2012 $1.19N/A (N/A)200,000 .. 500,0000%00:00 (00:00)
71 LocoCycle Feb 14, 2014 $2.49N/A (N/A)20,000 .. 50,0000%00:00 (00:00)
72 Thunder Wolves May 15, 2013 $1.99N/A (N/A/69%)50,000 .. 100,0000%00:00 (00:00)
73 Strike Suit Infinity Apr 30, 2013 $2.79N/A (N/A/66%)100,000 .. 200,0000%00:00 (00:00)
74 The Apogee Throwback Pack Jul 1, 2013 $8.99N/A (N/A)200,000 .. 500,0000%00:00 (00:00)
75 Guncraft Aug 9, 2013 $14.99N/A (N/A/73%)50,000 .. 100,0000%00:00 (00:00)
76 Kill to Collect Apr 6, 2016 $1.99N/A (N/A/57%)20,000 .. 50,0000%00:00 (00:00)
77 The Chaos Engine Aug 29, 2013 $3.39N/A (N/A/40%)100,000 .. 200,0000%00:00 (00:00)
78 Blood Omen 2: Legacy of Kain Mar 29, 2002 $0.97N/A (N/A)200,000 .. 500,0000%00:00 (00:00)
79 Strike Vector Jan 28, 2014 N/AN/A (N/A/73%)100,000 .. 200,0000%00:00 (00:00)
80 Shadow Man Mar 9, 1999 N/AN/A (N/A)50,000 .. 100,0000%00:00 (00:00)
81 YAIBA: NINJA GAIDEN Z Mar 21, 2014 $29.99N/A (N/A)50,000 .. 100,0000%00:00 (00:00)
82 Hot Tin Roof: The Cat That Wore A Fedora Feb 20, 2015 $5.99N/A (N/A/66%)50,000 .. 100,0000%00:00 (00:00)
83 Tango Fiesta – 80’s Action Film meets 2D Top Down Multiplayer Co-Op Roguelike Military Shooter Sep 24, 2015 $5.59N/A (N/A)20,000 .. 50,0000%00:00 (00:00)
84 Spider: Rite of the Shrouded Moon Aug 6, 2015 $4.99N/A (N/A)20,000 .. 50,0000%00:00 (00:00)
85 JUDGEMENT SILVERSWORD - Resurrection - Sep 18, 2015 $3.49N/A (N/A)0 .. 20,0000%00:00 (00:00)
86 GIGANTIC ARMY Mar 6, 2014 $2.99N/A (N/A)50,000 .. 100,0000%00:00 (00:00)
87 Eterium Apr 15, 2014 $4.99N/A (N/A)100,000 .. 200,0000%00:00 (00:00)
88 Explodemon Mar 25, 2014 $0.89N/A (N/A)20,000 .. 50,0000%00:00 (00:00)
89 House of the Dying Sun Nov 1, 2016 $6.79N/A (N/A/76%)100,000 .. 200,0000%00:00 (00:00)
90 Majestic Nights Oct 30, 2014 $4.99N/A (N/A/32%)20,000 .. 50,0000%00:00 (00:00)
91 Dark Raid Jun 3, 2014 $3.99N/A (N/A)20,000 .. 50,0000%00:00 (00:00)
92 Putt-Putt Saves The Zoo Dec 31, 1995 $3.49N/A (N/A)20,000 .. 50,0000%00:00 (00:00)
93 Kraven Manor Sep 26, 2014 FreeN/A (N/A/58%)100,000 .. 200,0000%00:00 (00:00)
94 Beyond Space Remastered Edition Jun 18, 2014 $0.99N/A (N/A)20,000 .. 50,0000%00:00 (00:00)
95 Blood II: The Chosen + Expansion Oct 31, 1998 $1.24N/A (N/A/72%)20,000 .. 50,0000%00:00 (00:00)
96 Chernobyl Commando Mar 8, 2013 N/AN/A (N/A)50,000 .. 100,0000%00:00 (00:00)
97 Manhunter Jan 29, 2013 N/AN/A (N/A)100,000 .. 200,0000%00:00 (00:00)
98 The Way May 20, 2016 $1.49N/A (N/A/67%)100,000 .. 200,0000%00:00 (00:00)
99 The Stalin Subway: Red Veil Oct 24, 2014 $0.5N/A (N/A)50,000 .. 100,0000%00:00 (00:00)
100 OCEAN CITY RACING Nov 14, 2014 $1.99N/A (N/A)50,000 .. 100,0000%00:00 (00:00)
101 Vertical Drop Heroes HD Jul 25, 2014 $6.99N/A (N/A/70%)100,000 .. 200,0000%00:00 (00:00)
102 Bird Assassin Aug 27, 2014 $1.99N/A (N/A)0 .. 20,0000%00:00 (00:00)
103 Disney G-Force Oct 6, 2014 $5.99N/A (N/A/61%)0 .. 20,00020%00:57 (00:19)
104 Cinemaware Anthology: 1986-1991 Nov 14, 2014 $2.99N/A (N/A)20,000 .. 50,0000%00:00 (00:00)
105 Deer Hunt Legends Jan 16, 2015 $0.99N/A (N/A)0 .. 20,0000%00:00 (00:00)
106 Down To One Jan 7, 2016 $0.99N/A (N/A)100,000 .. 200,0000%00:00 (00:00)
107 Insanity's Blade Dec 4, 2014 $5.99N/A (N/A)20,000 .. 50,0000%00:00 (00:00)
108 Raptor: Call of The Shadows - 2015 Edition Feb 13, 2015 $1.99N/A (N/A)50,000 .. 100,0000%00:00 (00:00)
109 Supercharged Robot VULKAISER Jun 4, 2015 $2.49N/A (N/A)20,000 .. 50,0000%00:00 (00:00)
110 Cobalt Feb 2, 2016 $14.99N/A (N/A/69%)20,000 .. 50,0000%00:00 (00:00)
111 Hocus Pocus May 5, 2014 $2.99N/A (N/A)20,000 .. 50,0000%00:00 (00:00)
112 Stargunner Nov 19, 1996 FreeN/A (N/A)20,000 .. 50,0000%00:00 (00:00)
113 Rise of the Triad: Dark War May 5, 2014 $6.29N/A (N/A)0 .. 20,0000%00:00 (00:00)
114 Mega Man Legacy Collection Aug 24, 2015 $5.99N/A (N/A/85%)200,000 .. 500,0000%00:00 (00:00)
115 METAL SLUG 2 Apr 14, 2016 $3.49N/A (N/A)100,000 .. 200,0000%00:00 (00:00)
116 SHOCK TROOPERS May 18, 2016 $3.99N/A (N/A)20,000 .. 50,0000%00:00 (00:00)
117 Super Mutant Alien Assault Jul 11, 2016 $1.99N/A (N/A)20,000 .. 50,0000%00:00 (00:00)
118 Grey Cubes May 15, 2015 N/AN/A (N/A)50,000 .. 100,0000%00:00 (00:00)
119 Kung Fury: Street Rage May 28, 2015 $6.99N/A (N/A)200,000 .. 500,0000%00:00 (00:00)
120 ESCHATOS Sep 18, 2015 $7.49N/A (N/A)0 .. 20,0000%00:00 (00:00)
121 Cruel Arena Aug 18, 2015 $0.99N/A (N/A)200,000 .. 500,0000%00:00 (00:00)
122 Glass Wing Jun 24, 2015 FreeN/A (N/A)50,000 .. 100,0000%00:00 (00:00)
123 Zanzarah: The Hidden Portal Aug 20, 2015 $0.79N/A (N/A)100,000 .. 200,0000%00:00 (00:00)
124 Umihara Kawase Shun Nov 24, 2015 $2.39N/A (N/A)0 .. 20,0000%00:00 (00:00)
125 Mighty Gunvolt Sep 29, 2015 $0.99N/A (N/A)20,000 .. 50,0000%00:00 (00:00)
126 Square Brawl Oct 22, 2015 $0.49N/A (N/A)20,000 .. 50,0000%00:00 (00:00)
127 Little Big Adventure - Enhanced Edition Oct 20, 2015 $2.39N/A (N/A)20,000 .. 50,0000%00:00 (00:00)
128 Code of Princess Apr 14, 2016 $2.99N/A (N/A/53%)20,000 .. 50,0000%00:00 (00:00)
129 LASTFIGHT May 19, 2016 $14.99N/A (N/A)0 .. 20,0000%00:00 (00:00)
130 Skautfold: Shrouded in Sanity May 27, 2016 $0.99N/A (N/A)50,000 .. 100,0000%00:00 (00:00)
131 Demon's Crystals Apr 21, 2016 $1.19N/A (N/A)0 .. 20,0000%00:00 (00:00)
132 Spell Fighter VR Mar 1, 2016 FreeN/A (N/A)100,000 .. 200,0000%00:00 (00:00)
133 Vertigo Dec 22, 2016 N/AN/A (N/A)0 .. 20,0000%00:00 (00:00)
134 Zenodyne R May 29, 2016 $1.99N/A (N/A)0 .. 20,0000%00:00 (00:00)
135 Phantaruk Aug 16, 2016 $0.49N/A (N/A/53%)20,000 .. 50,0000%00:00 (00:00)
136 Yomawari: Night Alone Oct 25, 2016 $3.99N/A (N/A)50,000 .. 100,0000%00:00 (00:00)
137 Ballistic Tanks Sep 20, 2016 $4.99N/A (N/A)0 .. 20,0000%00:00 (00:00)
138 Scrap Garden - The Day Before Oct 7, 2016 FreeN/A (N/A)200,000 .. 500,0000%00:00 (00:00)
139 THOTH Oct 7, 2016 $4.99N/A (N/A)50,000 .. 100,0000%00:00 (00:00)
140 Unbox: Newbie's Adventure Sep 5, 2016 $2.99N/A (N/A/68%)50,000 .. 100,0000%00:00 (00:00)
141 Deus Ex: Breach Jan 24, 2017 FreeN/A (N/A)50,000 .. 100,0000%00:00 (00:00)
142 STAR WARS SHADOWS OF THE EMPIRE Feb 7, 2017 $2.09N/A (N/A)50,000 .. 100,0000%00:00 (00:00)
143 PLANETS OF WAR Jun 30, 2017 $1.99N/A (N/A)0 .. 20,0000%00:00 (00:00)

Tags over time:

Access restricted.

This feature is only available to users with special access rights. Sorry.

If you want to proceed, you need to register or log in first and then back Steam Spy on Patreon. Look for Indie or Pro pledge.

Don't forget to use the same email as on Steam Spy!

If you've recently backed Steam Spy on Patreon, please note, that it might take around 15 minutes for your access rights to sync. In most cases you'll need to re-login on Steam Spy too.

Owners of this game also own:

Access restricted.

This feature is only available to users with special access rights. Sorry.

If you want to proceed, you need to register or log in first and then back Steam Spy on Patreon. Look for Indie or Pro pledge.

Don't forget to use the same email as on Steam Spy!

If you've recently backed Steam Spy on Patreon, please note, that it might take around 15 minutes for your access rights to sync. In most cases you'll need to re-login on Steam Spy too.

Playtime distribution:

Access restricted.

This feature is only available to users with special access rights. Sorry.

If you want to proceed, you need to register or log in first and then back Steam Spy on Patreon. Look for Indie or Pro pledge.

Don't forget to use the same email as on Steam Spy!

If you've recently backed Steam Spy on Patreon, please note, that it might take around 15 minutes for your access rights to sync. In most cases you'll need to re-login on Steam Spy too.

Playtime (2 weeks):

Access restricted.

This feature is only available to users with special access rights. Sorry.

If you want to proceed, you need to register or log in first and then back Steam Spy on Patreon. Look for Indie or Pro pledge.

Don't forget to use the same email as on Steam Spy!

If you've recently backed Steam Spy on Patreon, please note, that it might take around 15 minutes for your access rights to sync. In most cases you'll need to re-login on Steam Spy too.

User reviews:

Login required.

Please register or log in to see this information.